sensor_id;sensor_type;location;lat;lon;timestamp;P1;durP1;ratioP1;P2;durP2;ratioP2
50968;SDS011;36982;51.474;7.228;2023-07-31T00:02:14;6.70;;;3.03;;
50968;SDS011;36982;51.474;7.228;2023-07-31T00:04:40;7.33;;;3.60;;
50968;SDS011;36982;51.474;7.228;2023-07-31T00:07:05;8.10;;;3.20;;
50968;SDS011;36982;51.474;7.228;2023-07-31T00:09:32;6.40;;;3.10;;
50968;SDS011;36982;51.474;7.228;2023-07-31T00:11:58;9.80;;;3.40;;
50968;SDS011;36982;51.474;7.228;2023-07-31T00:14:23;6.13;;;3.00;;
50968;SDS011;36982;51.474;7.228;2023-07-31T00:16:49;8.47;;;3.43;;
50968;SDS011;36982;51.474;7.228;2023-07-31T00:19:15;8.27;;;3.80;;
50968;SDS011;36982;51.474;7.228;2023-07-31T00:21:40;6.83;;;3.40;;
50968;SDS011;36982;51.474;7.228;2023-07-31T00:24:06;10.27;;;3.60;;
50968;SDS011;36982;51.474;7.228;2023-07-31T00:26:31;8.03;;;3.43;;
50968;SDS011;36982;51.474;7.228;2023-07-31T00:28:57;6.00;;;3.33;;
50968;SDS011;36982;51.474;7.228;2023-07-31T00:31:22;8.27;;;3.33;;
50968;SDS011;36982;51.474;7.228;2023-07-31T00:33:48;8.07;;;3.33;;
50968;SDS011;36982;51.474;7.228;2023-07-31T00:36:14;10.73;;;3.97;;
50968;SDS011;36982;51.474;7.228;2023-07-31T00:38:39;9.90;;;3.77;;
50968;SDS011;36982;51.474;7.228;2023-07-31T00:41:05;11.40;;;3.50;;
50968;SDS011;36982;51.474;7.228;2023-07-31T00:43:30;9.17;;;4.00;;
50968;SDS011;36982;51.474;7.228;2023-07-31T00:45:56;9.47;;;4.07;;
50968;SDS011;36982;51.474;7.228;2023-07-31T00:48:21;9.07;;;4.17;;
50968;SDS011;36982;51.474;7.228;2023-07-31T00:50:48;11.07;;;4.33;;
50968;SDS011;36982;51.474;7.228;2023-07-31T00:53:13;8.33;;;4.20;;
50968;SDS011;36982;51.474;7.228;2023-07-31T00:55:39;13.17;;;4.20;;
50968;SDS011;36982;51.474;7.228;2023-07-31T00:58:05;8.67;;;4.10;;
50968;SDS011;36982;51.474;7.228;2023-07-31T01:00:30;11.37;;;5.37;;
50968;SDS011;36982;51.474;7.228;2023-07-31T01:02:56;12.13;;;4.30;;
50968;SDS011;36982;51.474;7.228;2023-07-31T01:05:29;13.03;;;3.90;;
50968;SDS011;36982;51.474;7.228;2023-07-31T01:10:41;11.27;;;4.83;;
50968;SDS011;36982;51.474;7.228;2023-07-31T01:13:13;9.67;;;4.43;;
50968;SDS011;36982;51.474;7.228;2023-07-31T01:15:40;11.03;;;4.20;;
50968;SDS011;36982;51.474;7.228;2023-07-31T01:18:05;10.03;;;4.00;;
50968;SDS011;36982;51.474;7.228;2023-07-31T01:20:31;14.10;;;4.07;;
50968;SDS011;36982;51.474;7.228;2023-07-31T01:28:56;10.53;;;3.97;;
50968;SDS011;36982;51.474;7.228;2023-07-31T01:31:35;8.80;;;4.13;;
50968;SDS011;36982;51.474;7.228;2023-07-31T01:34:03;10.83;;;4.60;;
50968;SDS011;36982;51.474;7.228;2023-07-31T01:36:30;12.23;;;4.40;;
50968;SDS011;36982;51.474;7.228;2023-07-31T01:39:00;8.57;;;3.97;;
50968;SDS011;36982;51.474;7.228;2023-07-31T01:41:26;8.73;;;3.60;;
50968;SDS011;36982;51.474;7.228;2023-07-31T01:43:52;8.87;;;3.97;;
50968;SDS011;36982;51.474;7.228;2023-07-31T01:46:17;10.83;;;4.40;;
50968;SDS011;36982;51.474;7.228;2023-07-31T01:48:43;11.47;;;3.37;;
50968;SDS011;36982;51.474;7.228;2023-07-31T01:51:09;13.37;;;5.57;;
50968;SDS011;36982;51.474;7.228;2023-07-31T01:53:34;10.27;;;3.80;;
50968;SDS011;36982;51.474;7.228;2023-07-31T01:56:00;10.27;;;4.00;;
50968;SDS011;36982;51.474;7.228;2023-07-31T01:58:25;7.17;;;3.73;;
50968;SDS011;36982;51.474;7.228;2023-07-31T02:00:51;11.77;;;3.80;;
50968;SDS011;36982;51.474;7.228;2023-07-31T02:03:16;12.73;;;4.10;;
50968;SDS011;36982;51.474;7.228;2023-07-31T02:05:45;10.63;;;3.40;;
50968;SDS011;36982;51.474;7.228;2023-07-31T02:08:12;8.60;;;3.53;;
50968;SDS011;36982;51.474;7.228;2023-07-31T02:10:37;12.47;;;4.13;;
50968;SDS011;36982;51.474;7.228;2023-07-31T02:13:03;10.47;;;4.60;;
50968;SDS011;36982;51.474;7.228;2023-07-31T02:15:29;10.07;;;3.67;;
50968;SDS011;36982;51.474;7.228;2023-07-31T02:17:55;10.33;;;3.50;;
50968;SDS011;36982;51.474;7.228;2023-07-31T02:20:21;7.27;;;4.13;;
50968;SDS011;36982;51.474;7.228;2023-07-31T02:22:46;11.70;;;4.83;;
50968;SDS011;36982;51.474;7.228;2023-07-31T02:25:12;10.97;;;4.47;;
50968;SDS011;36982;51.474;7.228;2023-07-31T02:27:37;12.47;;;4.20;;
50968;SDS011;36982;51.474;7.228;2023-07-31T02:30:03;12.03;;;4.90;;
50968;SDS011;36982;51.474;7.228;2023-07-31T02:32:29;9.13;;;3.30;;
50968;SDS011;36982;51.474;7.228;2023-07-31T02:34:54;7.47;;;3.10;;
50968;SDS011;36982;51.474;7.228;2023-07-31T02:37:20;20.13;;;7.77;;
50968;SDS011;36982;51.474;7.228;2023-07-31T02:39:46;10.77;;;4.53;;
50968;SDS011;36982;51.474;7.228;2023-07-31T02:42:12;22.00;;;9.37;;
50968;SDS011;36982;51.474;7.228;2023-07-31T02:44:38;25.00;;;7.67;;
50968;SDS011;36982;51.474;7.228;2023-07-31T02:47:03;7.97;;;3.60;;
50968;SDS011;36982;51.474;7.228;2023-07-31T02:49:29;10.57;;;3.77;;
50968;SDS011;36982;51.474;7.228;2023-07-31T02:51:55;10.50;;;4.40;;
50968;SDS011;36982;51.474;7.228;2023-07-31T02:54:20;10.90;;;4.30;;
50968;SDS011;36982;51.474;7.228;2023-07-31T02:56:46;8.70;;;3.60;;
50968;SDS011;36982;51.474;7.228;2023-07-31T02:59:13;8.70;;;3.90;;
50968;SDS011;36982;51.474;7.228;2023-07-31T03:01:38;10.37;;;3.87;;
50968;SDS011;36982;51.474;7.228;2023-07-31T03:04:04;10.40;;;3.20;;
50968;SDS011;36982;51.474;7.228;2023-07-31T03:06:30;11.53;;;3.40;;
50968;SDS011;36982;51.474;7.228;2023-07-31T03:08:55;9.30;;;3.60;;
50968;SDS011;36982;51.474;7.228;2023-07-31T03:11:21;10.00;;;3.87;;
50968;SDS011;36982;51.474;7.228;2023-07-31T03:13:46;8.60;;;4.07;;
50968;SDS011;36982;51.474;7.228;2023-07-31T03:16:12;12.60;;;3.90;;
50968;SDS011;36982;51.474;7.228;2023-07-31T03:18:38;10.33;;;3.80;;
50968;SDS011;36982;51.474;7.228;2023-07-31T03:21:04;9.83;;;3.57;;
50968;SDS011;36982;51.474;7.228;2023-07-31T03:23:29;7.63;;;3.60;;
50968;SDS011;36982;51.474;7.228;2023-07-31T03:26:02;10.60;;;4.03;;
50968;SDS011;36982;51.474;7.228;2023-07-31T03:28:31;9.17;;;3.83;;
50968;SDS011;36982;51.474;7.228;2023-07-31T03:30:57;9.60;;;3.50;;
50968;SDS011;36982;51.474;7.228;2023-07-31T03:33:22;12.57;;;4.70;;
50968;SDS011;36982;51.474;7.228;2023-07-31T03:35:48;10.63;;;4.60;;
50968;SDS011;36982;51.474;7.228;2023-07-31T03:38:14;9.03;;;3.57;;
50968;SDS011;36982;51.474;7.228;2023-07-31T03:40:39;6.83;;;3.27;;
50968;SDS011;36982;51.474;7.228;2023-07-31T03:43:05;9.20;;;3.70;;
50968;SDS011;36982;51.474;7.228;2023-07-31T03:45:31;9.53;;;3.23;;
50968;SDS011;36982;51.474;7.228;2023-07-31T03:47:56;10.80;;;3.97;;
50968;SDS011;36982;51.474;7.228;2023-07-31T03:50:22;10.23;;;3.80;;
50968;SDS011;36982;51.474;7.228;2023-07-31T03:52:48;9.53;;;3.60;;
50968;SDS011;36982;51.474;7.228;2023-07-31T03:55:13;10.30;;;4.40;;
50968;SDS011;36982;51.474;7.228;2023-07-31T03:57:39;10.43;;;4.10;;
50968;SDS011;36982;51.474;7.228;2023-07-31T04:00:05;9.50;;;3.80;;
50968;SDS011;36982;51.474;7.228;2023-07-31T04:02:31;7.13;;;3.10;;
50968;SDS011;36982;51.474;7.228;2023-07-31T04:04:56;6.80;;;3.43;;
50968;SDS011;36982;51.474;7.228;2023-07-31T04:07:22;11.00;;;3.53;;
50968;SDS011;36982;51.474;7.228;2023-07-31T04:09:47;6.67;;;3.30;;
50968;SDS011;36982;51.474;7.228;2023-07-31T04:12:13;9.03;;;3.80;;
50968;SDS011;36982;51.474;7.228;2023-07-31T04:14:38;9.93;;;4.00;;
50968;SDS011;36982;51.474;7.228;2023-07-31T04:17:04;10.47;;;3.67;;
50968;SDS011;36982;51.474;7.228;2023-07-31T04:19:29;9.33;;;3.27;;
50968;SDS011;36982;51.474;7.228;2023-07-31T04:21:55;11.47;;;4.13;;
50968;SDS011;36982;51.474;7.228;2023-07-31T04:24:21;9.20;;;3.63;;
50968;SDS011;36982;51.474;7.228;2023-07-31T04:26:53;9.23;;;3.47;;
50968;SDS011;36982;51.474;7.228;2023-07-31T04:29:18;8.80;;;3.67;;
50968;SDS011;36982;51.474;7.228;2023-07-31T04:31:44;10.00;;;4.00;;
50968;SDS011;36982;51.474;7.228;2023-07-31T04:34:10;8.47;;;3.37;;
50968;SDS011;36982;51.474;7.228;2023-07-31T04:36:36;9.93;;;3.97;;
50968;SDS011;36982;51.474;7.228;2023-07-31T04:39:02;12.80;;;4.40;;
50968;SDS011;36982;51.474;7.228;2023-07-31T04:41:28;9.17;;;3.40;;
50968;SDS011;36982;51.474;7.228;2023-07-31T04:43:53;8.30;;;3.33;;
50968;SDS011;36982;51.474;7.228;2023-07-31T04:46:19;5.70;;;3.20;;
50968;SDS011;36982;51.474;7.228;2023-07-31T04:48:45;9.20;;;3.37;;
50968;SDS011;36982;51.474;7.228;2023-07-31T04:51:10;7.53;;;3.30;;
50968;SDS011;36982;51.474;7.228;2023-07-31T04:53:36;4.97;;;3.33;;
50968;SDS011;36982;51.474;7.228;2023-07-31T04:56:02;7.90;;;3.30;;
50968;SDS011;36982;51.474;7.228;2023-07-31T04:58:27;4.63;;;3.30;;
50968;SDS011;36982;51.474;7.228;2023-07-31T05:00:53;7.70;;;3.70;;
50968;SDS011;36982;51.474;7.228;2023-07-31T05:03:18;9.03;;;3.50;;
50968;SDS011;36982;51.474;7.228;2023-07-31T05:05:44;5.57;;;3.50;;
50968;SDS011;36982;51.474;7.228;2023-07-31T05:08:09;9.70;;;3.90;;
50968;SDS011;36982;51.474;7.228;2023-07-31T05:10:35;9.50;;;3.60;;
50968;SDS011;36982;51.474;7.228;2023-07-31T05:13:01;11.80;;;3.80;;
50968;SDS011;36982;51.474;7.228;2023-07-31T05:15:26;11.60;;;4.50;;
50968;SDS011;36982;51.474;7.228;2023-07-31T05:17:52;11.77;;;3.93;;
50968;SDS011;36982;51.474;7.228;2023-07-31T05:20:17;8.63;;;3.30;;
50968;SDS011;36982;51.474;7.228;2023-07-31T05:22:43;8.13;;;3.40;;
50968;SDS011;36982;51.474;7.228;2023-07-31T05:25:09;8.27;;;4.33;;
50968;SDS011;36982;51.474;7.228;2023-07-31T05:27:34;6.67;;;3.60;;
50968;SDS011;36982;51.474;7.228;2023-07-31T05:30:00;8.37;;;3.53;;
50968;SDS011;36982;51.474;7.228;2023-07-31T05:32:25;6.57;;;3.90;;
50968;SDS011;36982;51.474;7.228;2023-07-31T05:34:51;8.03;;;3.43;;
50968;SDS011;36982;51.474;7.228;2023-07-31T05:37:18;7.80;;;3.50;;
50968;SDS011;36982;51.474;7.228;2023-07-31T05:39:44;8.87;;;3.93;;
50968;SDS011;36982;51.474;7.228;2023-07-31T05:42:10;7.13;;;3.30;;
50968;SDS011;36982;51.474;7.228;2023-07-31T05:44:35;8.20;;;3.67;;
50968;SDS011;36982;51.474;7.228;2023-07-31T05:47:01;5.83;;;3.50;;
50968;SDS011;36982;51.474;7.228;2023-07-31T05:49:27;8.87;;;4.67;;
50968;SDS011;36982;51.474;7.228;2023-07-31T05:51:52;8.60;;;4.40;;
50968;SDS011;36982;51.474;7.228;2023-07-31T05:54:18;8.15;;;3.95;;
50968;SDS011;36982;51.474;7.228;2023-07-31T05:56:43;10.33;;;6.50;;
50968;SDS011;36982;51.474;7.228;2023-07-31T05:59:09;9.13;;;4.57;;
50968;SDS011;36982;51.474;7.228;2023-07-31T06:01:37;9.47;;;4.37;;
50968;SDS011;36982;51.474;7.228;2023-07-31T06:04:02;8.70;;;4.70;;
50968;SDS011;36982;51.474;7.228;2023-07-31T06:06:28;9.40;;;3.97;;
50968;SDS011;36982;51.474;7.228;2023-07-31T06:08:54;10.10;;;4.00;;
50968;SDS011;36982;51.474;7.228;2023-07-31T06:11:20;6.80;;;3.90;;
50968;SDS011;36982;51.474;7.228;2023-07-31T06:13:46;11.17;;;4.97;;
50968;SDS011;36982;51.474;7.228;2023-07-31T06:16:13;6.77;;;4.00;;
50968;SDS011;36982;51.474;7.228;2023-07-31T06:18:39;11.70;;;4.40;;
50968;SDS011;36982;51.474;7.228;2023-07-31T06:21:05;7.97;;;4.60;;
50968;SDS011;36982;51.474;7.228;2023-07-31T06:23:31;7.13;;;3.83;;
50968;SDS011;36982;51.474;7.228;2023-07-31T06:25:57;9.23;;;4.93;;
50968;SDS011;36982;51.474;7.228;2023-07-31T06:28:27;8.93;;;4.10;;
50968;SDS011;36982;51.474;7.228;2023-07-31T06:30:56;10.10;;;4.03;;
50968;SDS011;36982;51.474;7.228;2023-07-31T06:33:22;9.60;;;4.20;;
50968;SDS011;36982;51.474;7.228;2023-07-31T06:35:48;10.90;;;4.30;;
50968;SDS011;36982;51.474;7.228;2023-07-31T06:38:13;11.60;;;4.30;;
50968;SDS011;36982;51.474;7.228;2023-07-31T06:40:39;7.30;;;3.67;;
50968;SDS011;36982;51.474;7.228;2023-07-31T06:43:05;9.03;;;4.07;;
50968;SDS011;36982;51.474;7.228;2023-07-31T06:45:36;8.60;;;3.63;;
50968;SDS011;36982;51.474;7.228;2023-07-31T06:48:03;8.80;;;4.43;;
50968;SDS011;36982;51.474;7.228;2023-07-31T06:50:29;8.80;;;4.20;;
50968;SDS011;36982;51.474;7.228;2023-07-31T06:52:55;9.60;;;4.60;;
50968;SDS011;36982;51.474;7.228;2023-07-31T06:55:21;8.30;;;4.37;;
50968;SDS011;36982;51.474;7.228;2023-07-31T06:57:48;6.97;;;4.10;;
50968;SDS011;36982;51.474;7.228;2023-07-31T07:00:16;5.83;;;4.20;;
50968;SDS011;36982;51.474;7.228;2023-07-31T07:02:42;6.20;;;3.87;;
50968;SDS011;36982;51.474;7.228;2023-07-31T07:05:07;5.87;;;4.32;;
50968;SDS011;36982;51.474;7.228;2023-07-31T07:07:34;6.33;;;3.83;;
50968;SDS011;36982;51.474;7.228;2023-07-31T07:10:00;9.27;;;4.03;;
50968;SDS011;36982;51.474;7.228;2023-07-31T07:12:27;5.20;;;3.93;;
50968;SDS011;36982;51.474;7.228;2023-07-31T07:14:54;4.67;;;3.27;;
50968;SDS011;36982;51.474;7.228;2023-07-31T07:17:20;7.77;;;3.80;;
50968;SDS011;36982;51.474;7.228;2023-07-31T07:19:47;5.53;;;3.17;;
50968;SDS011;36982;51.474;7.228;2023-07-31T07:22:13;5.13;;;3.33;;
50968;SDS011;36982;51.474;7.228;2023-07-31T07:24:38;7.33;;;3.50;;
50968;SDS011;36982;51.474;7.228;2023-07-31T07:27:04;6.57;;;3.87;;
50968;SDS011;36982;51.474;7.228;2023-07-31T07:29:30;7.17;;;3.93;;
50968;SDS011;36982;51.474;7.228;2023-07-31T07:31:56;5.87;;;3.67;;
50968;SDS011;36982;51.474;7.228;2023-07-31T07:34:28;6.37;;;3.70;;
50968;SDS011;36982;51.474;7.228;2023-07-31T07:36:54;5.90;;;3.10;;
50968;SDS011;36982;51.474;7.228;2023-07-31T07:39:20;7.43;;;3.40;;
50968;SDS011;36982;51.474;7.228;2023-07-31T07:41:46;8.30;;;3.70;;
50968;SDS011;36982;51.474;7.228;2023-07-31T07:44:12;5.37;;;3.37;;
50968;SDS011;36982;51.474;7.228;2023-07-31T07:46:38;7.23;;;3.77;;
50968;SDS011;36982;51.474;7.228;2023-07-31T07:49:04;5.67;;;3.90;;
50968;SDS011;36982;51.474;7.228;2023-07-31T07:51:30;6.70;;;3.83;;
50968;SDS011;36982;51.474;7.228;2023-07-31T07:53:56;6.83;;;3.77;;
50968;SDS011;36982;51.474;7.228;2023-07-31T07:56:23;7.03;;;3.43;;
50968;SDS011;36982;51.474;7.228;2023-07-31T07:58:49;6.90;;;3.30;;
50968;SDS011;36982;51.474;7.228;2023-07-31T08:01:15;7.13;;;4.37;;
50968;SDS011;36982;51.474;7.228;2023-07-31T08:03:41;5.33;;;4.20;;
50968;SDS011;36982;51.474;7.228;2023-07-31T08:06:06;4.97;;;3.13;;
50968;SDS011;36982;51.474;7.228;2023-07-31T08:08:34;8.20;;;5.10;;
50968;SDS011;36982;51.474;7.228;2023-07-31T08:11:00;7.17;;;3.70;;
50968;SDS011;36982;51.474;7.228;2023-07-31T08:13:25;4.07;;;3.03;;
50968;SDS011;36982;51.474;7.228;2023-07-31T08:15:51;6.83;;;3.20;;
50968;SDS011;36982;51.474;7.228;2023-07-31T08:18:17;7.10;;;3.97;;
50968;SDS011;36982;51.474;7.228;2023-07-31T08:20:42;4.67;;;3.07;;
50968;SDS011;36982;51.474;7.228;2023-07-31T08:23:08;5.20;;;3.40;;
50968;SDS011;36982;51.474;7.228;2023-07-31T08:25:37;7.13;;;4.07;;
50968;SDS011;36982;51.474;7.228;2023-07-31T08:28:03;6.27;;;3.23;;
50968;SDS011;36982;51.474;7.228;2023-07-31T08:30:30;6.27;;;3.77;;
50968;SDS011;36982;51.474;7.228;2023-07-31T08:32:56;7.17;;;3.70;;
50968;SDS011;36982;51.474;7.228;2023-07-31T08:35:21;7.23;;;4.07;;
50968;SDS011;36982;51.474;7.228;2023-07-31T08:37:50;5.70;;;3.37;;
50968;SDS011;36982;51.474;7.228;2023-07-31T08:40:15;3.83;;;2.90;;
50968;SDS011;36982;51.474;7.228;2023-07-31T08:42:44;5.43;;;3.00;;
50968;SDS011;36982;51.474;7.228;2023-07-31T08:45:15;5.27;;;3.07;;
50968;SDS011;36982;51.474;7.228;2023-07-31T08:47:44;5.70;;;2.80;;
50968;SDS011;36982;51.474;7.228;2023-07-31T08:50:12;5.10;;;3.00;;
50968;SDS011;36982;51.474;7.228;2023-07-31T08:52:38;4.17;;;2.87;;
50968;SDS011;36982;51.474;7.228;2023-07-31T08:55:05;5.37;;;3.10;;
50968;SDS011;36982;51.474;7.228;2023-07-31T08:57:31;3.63;;;2.20;;
50968;SDS011;36982;51.474;7.228;2023-07-31T08:59:59;3.83;;;2.80;;
50968;SDS011;36982;51.474;7.228;2023-07-31T09:02:25;4.83;;;2.50;;
50968;SDS011;36982;51.474;7.228;2023-07-31T09:05:01;4.73;;;2.53;;
50968;SDS011;36982;51.474;7.228;2023-07-31T09:07:27;6.50;;;4.13;;
50968;SDS011;36982;51.474;7.228;2023-07-31T09:09:54;4.47;;;2.80;;
50968;SDS011;36982;51.474;7.228;2023-07-31T09:12:19;4.87;;;3.47;;
50968;SDS011;36982;51.474;7.228;2023-07-31T09:14:45;4.77;;;3.10;;
50968;SDS011;36982;51.474;7.228;2023-07-31T09:17:12;4.73;;;2.83;;
50968;SDS011;36982;51.474;7.228;2023-07-31T09:19:38;4.80;;;3.03;;
50968;SDS011;36982;51.474;7.228;2023-07-31T09:22:04;3.27;;;2.07;;
50968;SDS011;36982;51.474;7.228;2023-07-31T09:24:32;3.73;;;2.70;;
50968;SDS011;36982;51.474;7.228;2023-07-31T09:26:59;3.43;;;2.60;;
50968;SDS011;36982;51.474;7.228;2023-07-31T09:29:27;3.33;;;2.63;;
50968;SDS011;36982;51.474;7.228;2023-07-31T09:31:54;9.37;;;6.43;;
50968;SDS011;36982;51.474;7.228;2023-07-31T09:34:28;4.28;;;3.10;;
50968;SDS011;36982;51.474;7.228;2023-07-31T09:37:05;2.97;;;2.20;;
50968;SDS011;36982;51.474;7.228;2023-07-31T09:39:31;4.37;;;2.90;;
50968;SDS011;36982;51.474;7.228;2023-07-31T09:41:57;4.00;;;2.10;;
50968;SDS011;36982;51.474;7.228;2023-07-31T09:44:39;6.10;;;3.83;;
50968;SDS011;36982;51.474;7.228;2023-07-31T09:47:06;2.70;;;2.13;;
50968;SDS011;36982;51.474;7.228;2023-07-31T09:49:31;3.03;;;2.00;;
50968;SDS011;36982;51.474;7.228;2023-07-31T09:51:57;5.00;;;2.83;;
50968;SDS011;36982;51.474;7.228;2023-07-31T09:54:22;3.10;;;2.47;;
50968;SDS011;36982;51.474;7.228;2023-07-31T09:56:49;3.17;;;2.05;;
50968;SDS011;36982;51.474;7.228;2023-07-31T09:59:15;2.55;;;1.98;;
50968;SDS011;36982;51.474;7.228;2023-07-31T10:01:43;3.23;;;2.10;;
50968;SDS011;36982;51.474;7.228;2023-07-31T10:04:11;3.37;;;1.90;;
50968;SDS011;36982;51.474;7.228;2023-07-31T10:06:38;2.93;;;2.63;;
50968;SDS011;36982;51.474;7.228;2023-07-31T10:09:05;2.28;;;1.87;;
50968;SDS011;36982;51.474;7.228;2023-07-31T10:11:41;2.50;;;1.90;;
50968;SDS011;36982;51.474;7.228;2023-07-31T10:14:15;3.30;;;2.08;;
50968;SDS011;36982;51.474;7.228;2023-07-31T10:16:43;3.42;;;2.10;;
50968;SDS011;36982;51.474;7.228;2023-07-31T10:19:09;4.18;;;2.67;;
50968;SDS011;36982;51.474;7.228;2023-07-31T10:21:35;3.00;;;2.20;;
50968;SDS011;36982;51.474;7.228;2023-07-31T10:24:03;2.87;;;2.33;;
50968;SDS011;36982;51.474;7.228;2023-07-31T10:26:30;2.00;;;1.67;;
50968;SDS011;36982;51.474;7.228;2023-07-31T10:28:57;2.33;;;1.70;;
50968;SDS011;36982;51.474;7.228;2023-07-31T10:31:23;3.12;;;1.80;;
50968;SDS011;36982;51.474;7.228;2023-07-31T10:33:49;3.00;;;1.73;;
50968;SDS011;36982;51.474;7.228;2023-07-31T10:36:17;2.60;;;1.87;;
50968;SDS011;36982;51.474;7.228;2023-07-31T10:38:44;2.45;;;1.80;;
50968;SDS011;36982;51.474;7.228;2023-07-31T10:41:11;2.67;;;1.52;;
50968;SDS011;36982;51.474;7.228;2023-07-31T10:43:37;2.40;;;1.57;;
50968;SDS011;36982;51.474;7.228;2023-07-31T10:46:07;2.80;;;1.57;;
50968;SDS011;36982;51.474;7.228;2023-07-31T10:48:39;2.42;;;2.00;;
50968;SDS011;36982;51.474;7.228;2023-07-31T10:51:09;3.03;;;2.00;;
50968;SDS011;36982;51.474;7.228;2023-07-31T10:53:36;4.03;;;2.77;;
50968;SDS011;36982;51.474;7.228;2023-07-31T10:56:04;2.60;;;1.93;;
50968;SDS011;36982;51.474;7.228;2023-07-31T10:58:30;3.77;;;2.10;;
50968;SDS011;36982;51.474;7.228;2023-07-31T11:00:58;3.17;;;2.15;;
50968;SDS011;36982;51.474;7.228;2023-07-31T11:03:25;4.13;;;3.33;;
50968;SDS011;36982;51.474;7.228;2023-07-31T11:05:53;2.70;;;2.20;;
50968;SDS011;36982;51.474;7.228;2023-07-31T11:08:26;5.00;;;2.93;;
50968;SDS011;36982;51.474;7.228;2023-07-31T11:13:27;6.30;;;3.73;;
50968;SDS011;36982;51.474;7.228;2023-07-31T11:15:57;8.27;;;2.60;;
50968;SDS011;36982;51.474;7.228;2023-07-31T11:18:23;5.07;;;3.10;;
50968;SDS011;36982;51.474;7.228;2023-07-31T11:20:50;4.12;;;2.30;;
50968;SDS011;36982;51.474;7.228;2023-07-31T11:23:16;4.40;;;2.93;;
50968;SDS011;36982;51.474;7.228;2023-07-31T11:25:42;5.07;;;3.65;;
50968;SDS011;36982;51.474;7.228;2023-07-31T11:28:09;6.47;;;3.72;;
50968;SDS011;36982;51.474;7.228;2023-07-31T11:30:36;4.80;;;3.45;;
50968;SDS011;36982;51.474;7.228;2023-07-31T11:33:03;4.90;;;3.27;;
50968;SDS011;36982;51.474;7.228;2023-07-31T11:35:34;4.33;;;3.30;;
50968;SDS011;36982;51.474;7.228;2023-07-31T11:38:01;6.03;;;3.57;;
50968;SDS011;36982;51.474;7.228;2023-07-31T11:40:27;5.53;;;3.33;;
50968;SDS011;36982;51.474;7.228;2023-07-31T11:42:57;4.50;;;2.70;;
50968;SDS011;36982;51.474;7.228;2023-07-31T11:45:28;5.82;;;2.60;;
50968;SDS011;36982;51.474;7.228;2023-07-31T11:47:55;4.53;;;3.20;;
50968;SDS011;36982;51.474;7.228;2023-07-31T11:50:22;6.10;;;2.67;;
50968;SDS011;36982;51.474;7.228;2023-07-31T11:52:50;4.80;;;2.67;;
50968;SDS011;36982;51.474;7.228;2023-07-31T11:55:22;6.35;;;2.80;;
50968;SDS011;36982;51.474;7.228;2023-07-31T11:57:49;7.50;;;2.90;;
50968;SDS011;36982;51.474;7.228;2023-07-31T12:00:15;5.00;;;2.67;;
50968;SDS011;36982;51.474;7.228;2023-07-31T12:02:42;5.67;;;3.20;;
50968;SDS011;36982;51.474;7.228;2023-07-31T12:05:12;4.97;;;2.45;;
50968;SDS011;36982;51.474;7.228;2023-07-31T12:07:44;3.17;;;2.80;;
50968;SDS011;36982;51.474;7.228;2023-07-31T12:10:33;6.25;;;2.90;;
50968;SDS011;36982;51.474;7.228;2023-07-31T12:12:59;3.42;;;2.30;;
50968;SDS011;36982;51.474;7.228;2023-07-31T12:15:42;3.72;;;2.20;;
50968;SDS011;36982;51.474;7.228;2023-07-31T12:18:19;3.70;;;2.60;;
50968;SDS011;36982;51.474;7.228;2023-07-31T12:20:46;2.92;;;2.17;;
50968;SDS011;36982;51.474;7.228;2023-07-31T12:23:20;5.90;;;2.97;;
50968;SDS011;36982;51.474;7.228;2023-07-31T12:26:09;3.90;;;2.33;;
50968;SDS011;36982;51.474;7.228;2023-07-31T12:28:45;3.35;;;2.62;;
50968;SDS011;36982;51.474;7.228;2023-07-31T12:31:16;2.80;;;2.08;;
50968;SDS011;36982;51.474;7.228;2023-07-31T12:33:44;2.75;;;2.40;;
50968;SDS011;36982;51.474;7.228;2023-07-31T12:36:11;4.72;;;2.58;;
50968;SDS011;36982;51.474;7.228;2023-07-31T12:38:38;3.40;;;2.10;;
50968;SDS011;36982;51.474;7.228;2023-07-31T12:41:03;4.87;;;2.17;;
50968;SDS011;36982;51.474;7.228;2023-07-31T12:43:31;3.70;;;2.17;;
50968;SDS011;36982;51.474;7.228;2023-07-31T12:45:57;2.35;;;2.00;;
50968;SDS011;36982;51.474;7.228;2023-07-31T12:48:22;3.33;;;2.50;;
50968;SDS011;36982;51.474;7.228;2023-07-31T12:50:48;3.83;;;2.40;;
50968;SDS011;36982;51.474;7.228;2023-07-31T12:53:14;3.37;;;2.25;;
50968;SDS011;36982;51.474;7.228;2023-07-31T12:55:41;3.83;;;2.22;;
50968;SDS011;36982;51.474;7.228;2023-07-31T12:58:06;4.00;;;2.55;;
50968;SDS011;36982;51.474;7.228;2023-07-31T13:00:32;3.62;;;2.42;;
50968;SDS011;36982;51.474;7.228;2023-07-31T13:02:57;2.90;;;2.40;;
50968;SDS011;36982;51.474;7.228;2023-07-31T13:05:23;3.97;;;2.60;;
50968;SDS011;36982;51.474;7.228;2023-07-31T13:07:49;4.57;;;2.83;;
50968;SDS011;36982;51.474;7.228;2023-07-31T13:10:15;5.05;;;2.80;;
50968;SDS011;36982;51.474;7.228;2023-07-31T13:12:40;3.53;;;2.67;;
50968;SDS011;36982;51.474;7.228;2023-07-31T13:15:06;4.37;;;2.75;;
50968;SDS011;36982;51.474;7.228;2023-07-31T13:17:32;3.37;;;2.28;;
50968;SDS011;36982;51.474;7.228;2023-07-31T13:19:58;11.95;;;8.65;;
50968;SDS011;36982;51.474;7.228;2023-07-31T13:22:24;2.45;;;2.10;;
50968;SDS011;36982;51.474;7.228;2023-07-31T13:24:50;1.80;;;1.60;;
50968;SDS011;36982;51.474;7.228;2023-07-31T13:27:16;3.83;;;2.33;;
50968;SDS011;36982;51.474;7.228;2023-07-31T13:29:44;2.05;;;1.83;;
50968;SDS011;36982;51.474;7.228;2023-07-31T13:32:09;4.97;;;3.87;;
50968;SDS011;36982;51.474;7.228;2023-07-31T13:34:35;4.03;;;1.77;;
50968;SDS011;36982;51.474;7.228;2023-07-31T13:37:00;3.35;;;2.20;;
50968;SDS011;36982;51.474;7.228;2023-07-31T13:39:26;6.57;;;4.30;;
50968;SDS011;36982;51.474;7.228;2023-07-31T13:41:52;2.55;;;2.20;;
50968;SDS011;36982;51.474;7.228;2023-07-31T13:44:17;3.08;;;2.20;;
50968;SDS011;36982;51.474;7.228;2023-07-31T13:46:43;3.35;;;2.67;;
50968;SDS011;36982;51.474;7.228;2023-07-31T13:49:08;4.32;;;2.97;;
50968;SDS011;36982;51.474;7.228;2023-07-31T13:51:34;2.25;;;2.03;;
50968;SDS011;36982;51.474;7.228;2023-07-31T13:54:00;2.85;;;2.00;;
50968;SDS011;36982;51.474;7.228;2023-07-31T13:56:26;2.92;;;2.17;;
50968;SDS011;36982;51.474;7.228;2023-07-31T13:58:52;3.78;;;2.35;;
50968;SDS011;36982;51.474;7.228;2023-07-31T14:01:17;2.80;;;2.10;;
50968;SDS011;36982;51.474;7.228;2023-07-31T14:03:43;2.95;;;1.90;;
50968;SDS011;36982;51.474;7.228;2023-07-31T14:06:08;2.75;;;2.00;;
50968;SDS011;36982;51.474;7.228;2023-07-31T14:08:34;3.28;;;2.20;;
50968;SDS011;36982;51.474;7.228;2023-07-31T14:10:59;3.53;;;2.05;;
50968;SDS011;36982;51.474;7.228;2023-07-31T14:13:25;4.15;;;2.20;;
50968;SDS011;36982;51.474;7.228;2023-07-31T14:15:51;3.50;;;2.25;;
50968;SDS011;36982;51.474;7.228;2023-07-31T14:18:17;2.67;;;2.35;;
50968;SDS011;36982;51.474;7.228;2023-07-31T14:20:42;4.12;;;2.42;;
50968;SDS011;36982;51.474;7.228;2023-07-31T14:23:08;3.72;;;2.50;;
50968;SDS011;36982;51.474;7.228;2023-07-31T14:25:33;2.85;;;2.35;;
50968;SDS011;36982;51.474;7.228;2023-07-31T14:27:59;4.40;;;2.65;;
50968;SDS011;36982;51.474;7.228;2023-07-31T14:30:25;5.12;;;3.05;;
50968;SDS011;36982;51.474;7.228;2023-07-31T14:32:50;3.50;;;3.12;;
50968;SDS011;36982;51.474;7.228;2023-07-31T14:35:16;5.47;;;2.30;;
50968;SDS011;36982;51.474;7.228;2023-07-31T14:37:42;5.12;;;2.78;;
50968;SDS011;36982;51.474;7.228;2023-07-31T14:40:10;3.53;;;2.65;;
50968;SDS011;36982;51.474;7.228;2023-07-31T14:42:36;4.00;;;2.45;;
50968;SDS011;36982;51.474;7.228;2023-07-31T14:45:03;3.90;;;2.50;;
50968;SDS011;36982;51.474;7.228;2023-07-31T14:47:29;3.30;;;2.53;;
50968;SDS011;36982;51.474;7.228;2023-07-31T14:49:58;6.45;;;2.85;;
50968;SDS011;36982;51.474;7.228;2023-07-31T14:52:24;5.87;;;2.58;;
50968;SDS011;36982;51.474;7.228;2023-07-31T14:54:50;3.85;;;3.03;;